Time;durP1;ratioP1;P1;durP2;ratioP2;P2;SDS_P1;SDS_P2;PMS_P1;PMS_P2;Temp;Humidity;BMP_temperature;BMP_pressure;BME280_temperature;BME280_humidity;BME280_pressure;Samples;Min_cycle;Max_cycle;Signal;HPM_P1;HPM_P2
2021/07/24 00:01:14;;;;;;;25.88;18.95;;;18.10;99.90;;;;;;5013668;28;20538;-70
2021/07/24 00:03:40;;;;;;;24.42;18.98;;;18.10;99.90;;;;;;5014926;28;20061;-70
2021/07/24 00:06:07;;;;;;;25.00;19.00;;;18.10;99.90;;;;;;5028402;28;20023;-69
2021/07/24 00:08:33;;;;;;;22.35;18.73;;;18.00;99.90;;;;;;5026174;28;20021;-70
2021/07/24 00:11:07;;;;;;;21.63;16.88;;;18.00;99.90;;;;;;5023002;28;20037;-70
2021/07/24 00:13:33;;;;;;;23.08;18.55;;;18.00;99.90;;;;;;5016529;28;20022;-70
2021/07/24 00:15:59;;;;;;;23.67;19.02;;;18.00;99.90;;;;;;5012337;28;20066;-69
2021/07/24 00:18:25;;;;;;;30.42;20.95;;;17.90;99.90;;;;;;5012977;28;20072;-69
2021/07/24 00:20:51;;;;;;;26.02;19.83;;;17.90;99.90;;;;;;5012913;28;20029;-69
2021/07/24 00:23:16;;;;;;;25.42;20.13;;;17.90;99.90;;;;;;5012596;28;20033;-69
2021/07/24 00:25:42;;;;;;;26.30;19.95;;;17.80;99.90;;;;;;5011324;28;20032;-70
2021/07/24 00:28:08;;;;;;;28.38;20.02;;;17.80;99.90;;;;;;4994831;28;20022;-69
2021/07/24 00:30:38;;;;;;;24.45;19.08;;;17.80;99.90;;;;;;5012768;28;20029;-69
2021/07/24 00:33:03;;;;;;;22.45;19.13;;;17.70;99.90;;;;;;5012416;28;20496;-69
2021/07/24 00:35:29;;;;;;;24.73;19.15;;;17.70;99.90;;;;;;5011970;28;20037;-69
2021/07/24 00:37:54;;;;;;;23.02;18.85;;;17.70;99.90;;;;;;5012406;28;20030;-69
2021/07/24 00:40:25;;;;;;;22.92;17.67;;;17.70;99.90;;;;;;5012102;28;20084;-69
2021/07/24 00:42:52;;;;;;;27.73;20.35;;;17.60;99.90;;;;;;5011927;28;20033;-69
2021/07/24 00:45:22;;;;;;;22.75;18.85;;;17.60;99.90;;;;;;5011244;28;20030;-70
2021/07/24 00:47:54;;;;;;;23.13;19.17;;;17.60;99.90;;;;;;5012282;28;20097;-69
2021/07/24 00:50:20;;;;;;;23.52;19.30;;;17.70;99.90;;;;;;5012362;28;20090;-70
2021/07/24 00:52:46;;;;;;;25.63;19.75;;;17.50;99.90;;;;;;5012470;28;20109;-69
2021/07/24 00:55:13;;;;;;;27.35;20.00;;;17.40;99.90;;;;;;5011599;28;20064;-69
2021/07/24 00:57:41;;;;;;;25.02;19.08;;;17.40;99.90;;;;;;5012203;28;20045;-69
2021/07/24 01:00:09;;;;;;;28.42;19.95;;;17.30;99.90;;;;;;5011962;28;20022;-70
2021/07/24 01:02:36;;;;;;;25.92;20.00;;;17.30;99.90;;;;;;5012159;28;20024;-68
2021/07/24 01:05:04;;;;;;;23.85;19.52;;;17.40;99.90;;;;;;5011087;28;20037;-70
2021/07/24 01:07:32;;;;;;;27.60;22.13;;;17.30;99.90;;;;;;5012145;28;20022;-69
2021/07/24 01:09:58;;;;;;;25.42;20.60;;;17.30;99.90;;;;;;5011892;28;20473;-69
2021/07/24 01:12:24;;;;;;;27.30;20.55;;;17.20;99.90;;;;;;5012049;28;20153;-69
2021/07/24 01:14:50;;;;;;;24.88;19.90;;;17.20;99.90;;;;;;5010946;28;20026;-70
2021/07/24 01:17:17;;;;;;;24.10;20.42;;;17.10;99.90;;;;;;5012067;28;20026;-70
2021/07/24 01:19:42;;;;;;;23.90;19.52;;;17.20;99.90;;;;;;5011841;28;20022;-69
2021/07/24 01:22:08;;;;;;;25.95;19.10;;;17.10;99.90;;;;;;5012267;28;20160;-70
2021/07/24 01:24:34;;;;;;;24.63;18.40;;;17.00;99.90;;;;;;5011256;28;20053;-68
2021/07/24 01:27:05;;;;;;;25.80;18.73;;;17.00;99.90;;;;;;5012021;28;20052;-68
2021/07/24 01:29:31;;;;;;;23.95;19.38;;;17.00;99.90;;;;;;5011786;28;20033;-68
2021/07/24 01:31:56;;;;;;;26.02;19.27;;;17.00;99.90;;;;;;5012144;28;20022;-68
2021/07/24 01:34:22;;;;;;;27.52;19.45;;;17.10;99.90;;;;;;5028927;28;20105;-70
2021/07/24 01:36:48;;;;;;;23.75;19.52;;;17.00;99.90;;;;;;5023881;28;20058;-70
2021/07/24 01:39:13;;;;;;;27.08;19.30;;;17.10;99.90;;;;;;5018437;28;20112;-68
2021/07/24 01:41:44;;;;;;;26.63;19.02;;;17.00;99.90;;;;;;5018767;28;20044;-68
2021/07/24 01:44:09;;;;;;;29.48;20.60;;;17.00;99.90;;;;;;5000185;28;20025;-70
2021/07/24 01:46:35;;;;;;;28.48;19.95;;;16.90;99.90;;;;;;5017543;28;20030;-70
2021/07/24 01:54:39;;;;;;;24.80;19.30;;;16.90;99.90;;;;;;5017684;28;20371;-69
2021/07/24 01:57:09;;;;;;;27.20;19.83;;;16.90;99.90;;;;;;5018089;28;20108;-70
2021/07/24 01:59:40;;;;;;;26.98;20.40;;;16.90;99.90;;;;;;5017723;28;20022;-70
2021/07/24 02:02:09;;;;;;;25.40;17.92;;;17.00;99.90;;;;;;5000691;28;20029;-70
2021/07/24 02:04:37;;;;;;;21.23;16.80;;;16.80;99.90;;;;;;5017238;28;20037;-70
2021/07/24 02:07:03;;;;;;;21.67;16.38;;;16.70;99.90;;;;;;5018037;28;20057;-70
2021/07/24 02:09:29;;;;;;;23.60;18.15;;;16.70;99.90;;;;;;5017148;28;20061;-69
2021/07/24 02:11:55;;;;;;;28.70;19.30;;;16.80;99.90;;;;;;5017994;28;20337;-70
2021/07/24 02:14:20;;;;;;;28.55;17.63;;;16.90;99.90;;;;;;5017134;28;20022;-70
2021/07/24 02:16:46;;;;;;;25.15;17.88;;;16.90;99.90;;;;;;5017851;28;20049;-70
2021/07/24 02:19:12;;;;;;;23.40;17.10;;;17.00;99.90;;;;;;5017895;28;20034;-69
2021/07/24 02:21:39;;;;;;;23.60;17.27;;;17.00;99.90;;;;;;5017907;28;20021;-69
2021/07/24 02:24:05;;;;;;;23.35;17.10;;;17.00;99.90;;;;;;5017115;28;20025;-70
2021/07/24 02:26:30;;;;;;;28.05;17.92;;;17.10;99.90;;;;;;5017134;28;20373;-69
2021/07/24 02:28:56;;;;;;;23.10;17.33;;;17.20;99.90;;;;;;5016414;28;20041;-69
2021/07/24 02:31:21;;;;;;;24.23;18.25;;;17.20;99.90;;;;;;5017814;28;20045;-70
2021/07/24 02:33:47;;;;;;;27.38;17.58;;;17.10;99.90;;;;;;5017596;28;20022;-69
2021/07/24 02:36:13;;;;;;;24.20;17.77;;;17.20;99.90;;;;;;5016916;28;20029;-69
2021/07/24 02:38:38;;;;;;;24.98;18.33;;;17.20;99.90;;;;;;5017477;28;20100;-70
2021/07/24 02:41:04;;;;;;;25.35;18.85;;;17.30;99.90;;;;;;5017893;28;20052;-69
2021/07/24 02:43:30;;;;;;;21.73;17.95;;;17.30;99.90;;;;;;5017562;28;20395;-70
2021/07/24 02:45:56;;;;;;;26.83;18.45;;;17.30;99.90;;;;;;5016691;28;20084;-69
2021/07/24 02:48:22;;;;;;;26.10;18.65;;;17.30;99.90;;;;;;5016697;28;20097;-69
2021/07/24 02:50:47;;;;;;;26.10;18.52;;;17.30;99.90;;;;;;5014260;28;20427;-69
2021/07/24 02:53:13;;;;;;;23.35;18.35;;;17.30;99.90;;;;;;5014615;28;20488;-69
2021/07/24 02:55:38;;;;;;;25.45;18.65;;;17.20;99.90;;;;;;5013978;28;20034;-69
2021/07/24 02:58:04;;;;;;;25.17;19.85;;;17.30;99.90;;;;;;5012653;28;20042;-69
2021/07/24 03:00:30;;;;;;;23.10;17.50;;;17.30;99.90;;;;;;5014092;28;20032;-70
2021/07/24 03:02:56;;;;;;;25.33;18.90;;;17.30;99.90;;;;;;5014161;28;20700;-70
2021/07/24 03:05:21;;;;;;;27.38;19.58;;;17.40;99.90;;;;;;5013778;28;20034;-70
2021/07/24 03:07:47;;;;;;;28.85;19.40;;;17.40;99.90;;;;;;5015068;28;20029;-70
2021/07/24 03:10:13;;;;;;;24.70;18.20;;;17.30;99.90;;;;;;5014429;28;20362;-69
2021/07/24 03:12:38;;;;;;;26.48;18.48;;;17.40;99.90;;;;;;5018086;28;20492;-70
2021/07/24 03:15:04;;;;;;;28.92;18.42;;;17.40;99.90;;;;;;5013493;28;20049;-69
2021/07/24 03:17:31;;;;;;;21.50;18.20;;;17.40;99.90;;;;;;5014347;28;20057;-69
2021/07/24 03:19:58;;;;;;;23.85;17.90;;;17.40;99.90;;;;;;5014136;28;20389;-69
2021/07/24 03:22:24;;;;;;;23.67;19.10;;;17.40;99.90;;;;;;5014079;28;20072;-70
2021/07/24 03:24:50;;;;;;;24.23;18.52;;;17.40;99.90;;;;;;5013143;28;20033;-70
2021/07/24 03:27:17;;;;;;;22.40;17.13;;;17.40;99.90;;;;;;5019370;28;20026;-70
2021/07/24 03:29:43;;;;;;;25.38;18.90;;;17.30;99.90;;;;;;5020111;28;20025;-69
2021/07/24 03:32:08;;;;;;;24.40;18.10;;;17.40;99.90;;;;;;5013965;28;20392;-69
2021/07/24 03:34:34;;;;;;;21.92;17.95;;;17.40;99.90;;;;;;5013283;28;20304;-70
2021/07/24 03:36:59;;;;;;;27.70;19.20;;;17.40;99.90;;;;;;5013728;28;20084;-69
2021/07/24 03:39:25;;;;;;;27.75;17.80;;;17.40;99.90;;;;;;5013710;28;20549;-70
2021/07/24 03:41:51;;;;;;;21.92;17.52;;;17.50;99.90;;;;;;5004153;28;20109;-71
2021/07/24 03:44:16;;;;;;;26.00;18.17;;;17.40;99.90;;;;;;5008166;28;20037;-70
2021/07/24 03:46:42;;;;;;;21.27;17.77;;;17.30;99.90;;;;;;5002701;28;20476;-70
2021/07/24 03:49:08;;;;;;;24.35;17.75;;;17.20;99.90;;;;;;5001970;28;20031;-70
2021/07/24 03:51:33;;;;;;;22.98;18.27;;;17.30;99.90;;;;;;4993863;28;20026;-70
2021/07/24 03:53:59;;;;;;;25.02;19.40;;;17.40;99.90;;;;;;4998936;28;20037;-69
2021/07/24 03:56:24;;;;;;;22.45;18.02;;;17.40;99.90;;;;;;5013286;28;20041;-70
2021/07/24 03:58:52;;;;;;;21.45;17.80;;;17.40;99.90;;;;;;5013438;28;20045;-71
2021/07/24 04:01:19;;;;;;;22.92;17.67;;;17.30;99.90;;;;;;5013076;28;20080;-69
2021/07/24 04:03:45;;;;;;;24.90;16.38;;;17.30;99.90;;;;;;5012434;28;20590;-70
2021/07/24 04:08:39;;;;;;;25.35;18.67;;;17.40;99.90;;;;;;5016514;28;20096;-70
2021/07/24 04:11:05;;;;;;;20.27;17.25;;;17.50;99.90;;;;;;4998890;28;20022;-70
2021/07/24 04:13:33;;;;;;;22.42;18.30;;;17.40;99.90;;;;;;4993645;28;20026;-69
2021/07/24 04:15:59;;;;;;;23.27;17.33;;;17.60;99.90;;;;;;4993045;28;20022;-70
2021/07/24 04:18:29;;;;;;;21.67;17.35;;;17.70;99.90;;;;;;4974306;28;20038;-69
2021/07/24 04:20:55;;;;;;;24.98;18.02;;;17.70;99.90;;;;;;4974144;28;20034;-69
2021/07/24 04:23:20;;;;;;;26.25;18.42;;;17.60;99.90;;;;;;4989339;28;20022;-71
2021/07/24 04:25:46;;;;;;;22.38;18.20;;;17.60;99.90;;;;;;4991679;28;20630;-70
2021/07/24 04:28:11;;;;;;;20.10;16.10;;;17.60;99.90;;;;;;4992125;28;20026;-70
2021/07/24 04:30:37;;;;;;;21.73;16.42;;;17.60;99.90;;;;;;4995168;28;20492;-70
2021/07/24 04:33:03;;;;;;;25.27;17.35;;;17.70;99.90;;;;;;4993911;28;20027;-70
2021/07/24 04:35:28;;;;;;;20.67;16.67;;;17.70;99.90;;;;;;4992548;28;20026;-70
2021/07/24 04:37:54;;;;;;;20.23;16.70;;;17.70;99.90;;;;;;4992792;28;20034;-70
2021/07/24 04:40:19;;;;;;;22.42;16.98;;;17.60;99.90;;;;;;4975456;28;20117;-71
2021/07/24 04:42:45;;;;;;;20.83;17.35;;;17.50;99.90;;;;;;4993060;28;20022;-71
2021/07/24 04:45:11;;;;;;;25.73;17.77;;;17.60;99.90;;;;;;4975052;28;20022;-71
2021/07/24 04:47:36;;;;;;;23.33;16.98;;;17.70;99.90;;;;;;4993115;28;20080;-71
2021/07/24 04:50:03;;;;;;;25.38;18.77;;;17.70;99.90;;;;;;4993122;28;20384;-71
2021/07/24 04:52:29;;;;;;;21.23;16.92;;;17.60;99.90;;;;;;4975953;28;20404;-71
2021/07/24 04:54:56;;;;;;;26.52;17.40;;;17.70;99.90;;;;;;4992260;28;20022;-71
2021/07/24 04:57:22;;;;;;;23.73;16.70;;;17.60;99.90;;;;;;4992830;28;20101;-71
2021/07/24 04:59:48;;;;;;;22.15;17.33;;;17.50;99.90;;;;;;4992579;28;20026;-70
2021/07/24 05:02:18;;;;;;;20.77;16.52;;;17.70;99.90;;;;;;4992488;28;20172;-71
2021/07/24 05:04:45;;;;;;;21.13;16.67;;;17.80;99.90;;;;;;4991764;28;20026;-71
2021/07/24 05:07:12;;;;;;;20.73;15.32;;;17.80;99.90;;;;;;4992401;28;20062;-71
2021/07/24 05:09:38;;;;;;;21.40;17.02;;;17.80;99.90;;;;;;5001693;28;20018;-71
2021/07/24 05:12:04;;;;;;;20.38;17.13;;;18.00;99.90;;;;;;4992575;28;20105;-71
2021/07/24 05:14:30;;;;;;;26.27;18.40;;;18.10;99.90;;;;;;4992039;28;20042;-71
2021/07/24 05:17:10;;;;;;;23.38;17.45;;;18.30;99.90;;;;;;4992128;28;20030;-71
2021/07/24 05:19:44;;;;;;;21.10;16.65;;;18.30;99.90;;;;;;4992603;28;20485;-71
2021/07/24 05:22:11;;;;;;;23.17;17.15;;;18.10;99.90;;;;;;4992246;28;20065;-70
2021/07/24 05:24:39;;;;;;;21.98;15.98;;;18.20;99.90;;;;;;4991654;28;20053;-71
2021/07/24 05:27:05;;;;;;;22.35;16.55;;;18.40;99.90;;;;;;4974856;28;20407;-72
2021/07/24 05:29:31;;;;;;;21.35;15.88;;;18.60;99.90;;;;;;4992166;28;20022;-72
2021/07/24 05:31:57;;;;;;;25.02;15.85;;;18.70;99.90;;;;;;4992310;28;20019;-72
2021/07/24 05:34:23;;;;;;;20.58;15.20;;;18.80;99.90;;;;;;4991784;28;20554;-70
2021/07/24 05:36:49;;;;;;;21.90;16.38;;;18.80;99.90;;;;;;4990850;28;20546;-70
2021/07/24 05:39:15;;;;;;;20.17;16.30;;;18.60;99.90;;;;;;4992076;28;20034;-70
2021/07/24 05:41:41;;;;;;;20.38;16.05;;;18.80;99.90;;;;;;4992099;28;20041;-71
2021/07/24 05:44:07;;;;;;;19.85;15.15;;;18.80;99.90;;;;;;4991868;28;20025;-71
2021/07/24 05:46:32;;;;;;;22.27;16.05;;;18.80;99.90;;;;;;4990835;28;20515;-72
2021/07/24 05:48:58;;;;;;;19.85;15.90;;;18.80;99.90;;;;;;4974467;28;20022;-72
2021/07/24 05:51:23;;;;;;;23.95;16.70;;;18.80;99.90;;;;;;4991981;28;20066;-72
2021/07/24 05:53:49;;;;;;;23.08;16.92;;;18.90;99.90;;;;;;4991964;28;20027;-72
2021/07/24 05:56:15;;;;;;;20.95;16.73;;;18.90;99.90;;;;;;4991221;28;20125;-72
2021/07/24 05:58:40;;;;;;;19.45;16.08;;;19.20;99.90;;;;;;4991873;28;20506;-72
2021/07/24 06:01:13;;;;;;;23.70;16.10;;;19.10;99.90;;;;;;4991775;28;20621;-71
2021/07/24 06:03:42;;;;;;;21.08;14.98;;;19.20;99.90;;;;;;4973619;28;20034;-71
2021/07/24 06:06:08;;;;;;;20.83;15.05;;;19.20;99.90;;;;;;4989989;28;20026;-71
2021/07/24 06:08:33;;;;;;;23.52;16.48;;;19.20;99.90;;;;;;4991006;28;20041;-71
2021/07/24 06:11:04;;;;;;;20.77;15.43;;;19.10;99.90;;;;;;4990319;28;20052;-71
2021/07/24 06:13:31;;;;;;;23.50;16.63;;;19.00;99.90;;;;;;4990431;28;20030;-71
2021/07/24 06:16:00;;;;;;;20.23;14.60;;;19.20;99.90;;;;;;4990944;28;20062;-72
2021/07/24 06:18:25;;;;;;;23.65;15.35;;;19.20;99.90;;;;;;4991466;28;20085;-68
2021/07/24 06:20:51;;;;;;;20.77;15.35;;;19.20;99.90;;;;;;4991661;28;20030;-69
2021/07/24 06:23:18;;;;;;;22.25;15.70;;;19.20;99.90;;;;;;4973851;28;20041;-69
2021/07/24 06:25:45;;;;;;;20.42;15.90;;;19.30;99.90;;;;;;4993651;28;20031;-68
2021/07/24 06:28:11;;;;;;;25.15;15.57;;;19.30;99.90;;;;;;4995133;28;20030;-69
2021/07/24 06:30:37;;;;;;;20.63;15.60;;;19.20;99.90;;;;;;4994940;28;20029;-69
2021/07/24 06:33:04;;;;;;;19.30;15.30;;;19.20;99.90;;;;;;4990140;28;20204;-68
2021/07/24 06:35:29;;;;;;;21.20;15.60;;;19.30;99.90;;;;;;4994627;28;20535;-68
2021/07/24 06:37:55;;;;;;;23.30;16.67;;;19.40;99.90;;;;;;4994767;28;20050;-70
2021/07/24 06:40:21;;;;;;;24.15;15.48;;;19.60;99.90;;;;;;4994981;28;20485;-68
2021/07/24 06:42:46;;;;;;;23.00;16.07;;;19.90;99.90;;;;;;4994844;28;20042;-68
2021/07/24 06:45:12;;;;;;;18.73;14.48;;;20.20;99.90;;;;;;4994164;28;20026;-69
2021/07/24 06:47:38;;;;;;;21.38;14.13;;;20.10;99.90;;;;;;4994762;28;20504;-68
2021/07/24 06:50:04;;;;;;;18.05;14.60;;;20.20;99.90;;;;;;4994830;28;20333;-69
2021/07/24 06:52:30;;;;;;;20.30;15.90;;;20.20;99.90;;;;;;4994576;28;20057;-68
2021/07/24 06:54:56;;;;;;;24.00;15.93;;;20.10;99.90;;;;;;4993166;28;20050;-69
2021/07/24 06:57:21;;;;;;;21.90;15.40;;;19.70;99.90;;;;;;4994687;28;20034;-70
2021/07/24 06:59:47;;;;;;;20.35;15.38;;;19.60;99.90;;;;;;4994605;28;20033;-71
2021/07/24 07:02:13;;;;;;;21.75;16.27;;;19.70;99.90;;;;;;4994606;28;20022;-71
2021/07/24 07:04:39;;;;;;;22.30;16.08;;;19.40;99.90;;;;;;4993758;28;20038;-71
2021/07/24 07:07:06;;;;;;;21.90;15.70;;;19.60;99.90;;;;;;4994427;28;20031;-71
2021/07/24 07:09:32;;;;;;;20.20;14.63;;;19.70;99.90;;;;;;4994106;28;20015;-71
2021/07/24 07:11:58;;;;;;;26.10;17.02;;;19.80;99.90;;;;;;4976879;28;20784;-72
2021/07/24 07:14:25;;;;;;;28.42;15.73;;;19.90;99.90;;;;;;4994187;28;20042;-71
2021/07/24 07:16:51;;;;;;;18.88;15.98;;;20.10;99.90;;;;;;4994192;28;20050;-71
2021/07/24 07:19:17;;;;;;;18.33;15.32;;;20.30;99.90;;;;;;4994527;28;20031;-73
2021/07/24 07:21:43;;;;;;;20.20;14.75;;;20.50;99.90;;;;;;4994411;28;20045;-74
2021/07/24 07:24:09;;;;;;;17.13;14.63;;;20.70;99.90;;;;;;4994208;28;20034;-73
2021/07/24 07:26:34;;;;;;;23.00;15.82;;;20.80;99.90;;;;;;4993361;28;20033;-73
2021/07/24 07:29:03;;;;;;;16.55;14.02;;;21.20;99.90;;;;;;4993621;28;20030;-72
2021/07/24 07:31:33;;;;;;;19.17;14.27;;;21.40;99.90;;;;;;4994442;28;20022;-72
2021/07/24 07:34:00;;;;;;;16.67;13.60;;;21.20;99.90;;;;;;4995217;28;20037;-71
2021/07/24 07:36:26;;;;;;;21.10;14.80;;;21.30;99.90;;;;;;4977071;28;20389;-73
2021/07/24 07:38:52;;;;;;;23.63;14.77;;;21.60;99.90;;;;;;4997765;28;20026;-71
2021/07/24 07:41:18;;;;;;;19.85;14.05;;;21.70;99.90;;;;;;4995492;28;20030;-71
2021/07/24 07:43:45;;;;;;;16.13;12.93;;;21.60;99.90;;;;;;4994454;28;20043;-68
2021/07/24 07:46:10;;;;;;;21.13;13.80;;;21.60;99.90;;;;;;4993444;28;20038;-71
2021/07/24 07:48:36;;;;;;;21.10;13.50;;;21.70;99.90;;;;;;4994430;28;20110;-73
2021/07/24 07:51:03;;;;;;;20.92;15.32;;;21.50;99.90;;;;;;4993893;28;20029;-73
2021/07/24 07:53:29;;;;;;;21.80;14.85;;;21.40;99.90;;;;;;4994291;28;20102;-73
2021/07/24 07:55:55;;;;;;;20.52;14.02;;;21.60;99.90;;;;;;4993056;28;20114;-73
2021/07/24 07:58:20;;;;;;;18.30;13.45;;;21.50;99.90;;;;;;4992520;28;20507;-72
2021/07/24 08:00:46;;;;;;;24.75;14.90;;;21.50;99.90;;;;;;4993657;28;20034;-72
2021/07/24 08:03:12;;;;;;;21.35;15.43;;;21.60;99.90;;;;;;4992053;28;20031;-73
2021/07/24 08:05:37;;;;;;;18.58;14.70;;;21.70;99.90;;;;;;4992890;28;20085;-70
2021/07/24 08:08:03;;;;;;;18.70;15.45;;;21.70;99.90;;;;;;4993014;28;20038;-71
2021/07/24 08:10:29;;;;;;;17.27;13.77;;;21.90;99.90;;;;;;4992859;28;20039;-72
2021/07/24 08:12:54;;;;;;;17.45;13.82;;;22.00;99.90;;;;;;4992670;28;20022;-72
2021/07/24 08:15:20;;;;;;;17.95;13.32;;;22.00;99.90;;;;;;4993094;28;20029;-74
2021/07/24 08:17:46;;;;;;;17.95;14.43;;;22.10;99.90;;;;;;4993747;28;20547;-75
2021/07/24 08:20:13;;;;;;;19.95;14.23;;;22.20;99.90;;;;;;4993796;28;20074;-77
2021/07/24 08:22:38;;;;;;;18.35;14.38;;;22.30;99.90;;;;;;4991997;28;20062;-70
2021/07/24 08:25:05;;;;;;;18.00;14.57;;;22.30;99.90;;;;;;4992346;28;20030;-72
2021/07/24 08:27:34;;;;;;;18.45;14.60;;;22.30;99.90;;;;;;4996098;28;20032;-71
2021/07/24 08:30:00;;;;;;;18.48;13.93;;;22.30;99.90;;;;;;4994865;28;20113;-72
2021/07/24 08:32:26;;;;;;;22.58;14.18;;;22.30;99.90;;;;;;4992194;28;20054;-73
2021/07/24 08:34:52;;;;;;;17.33;13.75;;;22.40;99.90;;;;;;4999388;28;20026;-73
2021/07/24 08:37:19;;;;;;;18.60;14.25;;;22.50;99.90;;;;;;4999101;28;20031;-73
2021/07/24 08:39:44;;;;;;;22.23;14.75;;;22.40;99.90;;;;;;4992561;28;20042;-72
2021/07/24 08:42:31;;;;;;;19.23;13.65;;;22.50;99.90;;;;;;4992344;28;20026;-73
2021/07/24 08:45:00;;;;;;;14.73;12.85;;;22.30;99.90;;;;;;4974235;28;20034;-74
2021/07/24 08:47:27;;;;;;;18.73;13.73;;;22.40;99.90;;;;;;4991727;28;20022;-74
2021/07/24 08:49:53;;;;;;;17.77;14.02;;;22.40;99.90;;;;;;4993169;28;20030;-71
2021/07/24 08:52:20;;;;;;;19.92;13.68;;;22.70;99.90;;;;;;4974695;28;20035;-72
2021/07/24 08:54:46;;;;;;;18.75;12.98;;;23.10;99.90;;;;;;4991765;28;20025;-71
2021/07/24 08:57:16;;;;;;;14.73;12.75;;;23.60;99.90;;;;;;4991909;28;20022;-72
2021/07/24 08:59:43;;;;;;;17.80;13.48;;;24.20;99.90;;;;;;4990218;28;20029;-72
2021/07/24 09:02:10;;;;;;;19.92;13.05;;;24.40;99.90;;;;;;4991764;28;20054;-72
2021/07/24 09:04:36;;;;;;;21.75;13.20;;;24.60;99.90;;;;;;4991808;28;20143;-73
2021/07/24 09:07:05;;;;;;;20.75;13.63;;;24.90;99.90;;;;;;4992321;28;20054;-70
2021/07/24 09:09:32;;;;;;;13.50;12.07;;;24.80;99.90;;;;;;4992212;28;20027;-71
2021/07/24 09:11:58;;;;;;;15.80;11.05;;;24.80;99.90;;;;;;4980270;28;20097;-70
2021/07/24 09:14:27;;;;;;;12.23;10.82;;;25.20;99.90;;;;;;4972527;28;20078;-73
2021/07/24 09:16:52;;;;;;;13.43;10.65;;;25.60;99.90;;;;;;4973252;28;20026;-72
2021/07/24 09:19:19;;;;;;;13.73;9.40;;;26.60;99.90;;;;;;4973380;28;20139;-73
2021/07/24 09:21:45;;;;;;;10.27;9.15;;;27.30;99.90;;;;;;4973340;28;20023;-72
2021/07/24 09:24:22;;;;;;;11.38;9.27;;;27.30;99.90;;;;;;4973111;28;20490;-71
2021/07/24 09:26:48;;;;;;;12.50;8.70;;;27.60;99.90;;;;;;4974507;28;20530;-70
2021/07/24 09:29:18;;;;;;;10.82;8.23;;;28.10;99.90;;;;;;4972000;28;20044;-69
2021/07/24 09:31:45;;;;;;;8.95;8.10;;;27.20;99.90;;;;;;4989855;28;20025;-69
2021/07/24 09:34:13;;;;;;;10.43;8.65;;;27.80;99.90;;;;;;5001145;28;20511;-70
2021/07/24 09:36:40;;;;;;;9.65;8.60;;;28.10;99.90;;;;;;4982668;28;20027;-70
2021/07/24 09:39:12;;;;;;;8.93;8.02;;;27.60;99.90;;;;;;4985404;28;20097;-71
2021/07/24 09:41:40;;;;;;;9.20;8.30;;;27.30;99.90;;;;;;4982829;28;20041;-72
2021/07/24 09:44:05;;;;;;;8.45;7.65;;;26.70;99.90;;;;;;4987878;28;20031;-70
2021/07/24 09:46:32;;;;;;;11.30;8.02;;;26.80;99.90;;;;;;4991079;28;20080;-71
2021/07/24 09:49:14;;;;;;;13.55;8.05;;;26.70;99.90;;;;;;4990373;28;20077;-70
2021/07/24 09:51:41;;;;;;;10.90;7.90;;;26.10;99.90;;;;;;4988430;28;20024;-72
2021/07/24 09:54:28;;;;;;;12.35;8.65;;;26.10;99.90;;;;;;4991069;28;20121;-71
2021/07/24 09:56:56;;;;;;;10.68;8.63;;;26.30;99.90;;;;;;4991730;28;20034;-73
2021/07/24 09:59:35;;;;;;;11.73;8.52;;;26.30;99.90;;;;;;4993612;28;20085;-72
2021/07/24 10:02:06;;;;;;;10.70;8.48;;;26.10;99.90;;;;;;4995887;28;20037;-72
2021/07/24 10:04:52;;;;;;;10.43;8.00;;;26.10;99.90;;;;;;4995303;28;20026;-72
2021/07/24 10:07:18;;;;;;;15.30;8.20;;;27.00;99.90;;;;;;4995693;28;20424;-71
2021/07/24 10:09:45;;;;;;;11.98;7.13;;;27.90;99.90;;;;;;5064394;23;20038;-70
2021/07/24 10:12:15;;;;;;;12.57;7.72;;;27.80;99.90;;;;;;5015160;28;20056;-69
2021/07/24 10:14:42;;;;;;;10.77;7.60;;;27.60;99.90;;;;;;5014874;28;20022;-70
2021/07/24 10:17:08;;;;;;;12.43;8.30;;;26.90;99.90;;;;;;5014693;28;20037;-69
2021/07/24 10:19:34;;;;;;;10.55;7.70;;;26.90;99.90;;;;;;5015142;28;20097;-71
2021/07/24 10:22:01;;;;;;;10.48;8.25;;;27.10;99.90;;;;;;5015554;28;20096;-71
2021/07/24 10:24:28;;;;;;;13.65;8.60;;;27.00;99.90;;;;;;5017257;28;20030;-71
2021/07/24 10:27:03;;;;;;;9.73;7.32;;;27.00;99.90;;;;;;5015432;28;20080;-70
2021/07/24 10:29:32;;;;;;;9.40;7.70;;;26.90;99.90;;;;;;5014836;28;20026;-71
2021/07/24 10:32:24;;;;;;;10.13;7.55;;;27.20;99.90;;;;;;5016194;28;20162;-70
2021/07/24 10:34:54;;;;;;;13.02;8.25;;;27.50;99.90;;;;;;5019078;28;20033;-70
2021/07/24 10:37:35;;;;;;;11.13;7.68;;;26.80;99.90;;;;;;5004486;28;20478;-72
2021/07/24 10:40:16;;;;;;;12.05;8.23;;;27.40;99.90;;;;;;4995013;28;20073;-72
2021/07/24 10:42:50;;;;;;;11.20;8.20;;;28.10;99.90;;;;;;4996236;28;20022;-73
2021/07/24 10:45:31;;;;;;;11.15;7.25;;;28.40;99.90;;;;;;4996287;28;20930;-77
2021/07/24 10:48:19;;;;;;;9.05;8.15;;;29.20;99.90;;;;;;4990255;28;20035;-77
2021/07/24 10:50:54;;;;;;;9.32;6.82;;;29.70;99.90;;;;;;4976894;28;20019;-77
2021/07/24 10:53:21;;;;;;;9.13;6.50;;;29.30;99.40;;;;;;4977925;28;20041;-77
2021/07/24 10:55:51;;;;;;;7.82;6.60;;;29.50;96.70;;;;;;4977882;28;20389;-76
2021/07/24 10:58:29;;;;;;;7.50;6.65;;;28.80;95.80;;;;;;4986179;28;20098;-78
2021/07/24 11:00:59;;;;;;;9.50;6.78;;;27.90;98.50;;;;;;4993770;28;20034;-76
2021/07/24 11:03:35;;;;;;;10.25;7.43;;;27.40;99.20;;;;;;4994403;28;20133;-76
2021/07/24 11:06:19;;;;;;;8.63;7.50;;;27.30;99.50;;;;;;4994535;28;20510;-75
2021/07/24 11:08:57;;;;;;;8.88;7.05;;;26.80;99.90;;;;;;4991354;28;20027;-76
2021/07/24 11:11:42;;;;;;;12.82;7.28;;;26.40;99.90;;;;;;4985720;28;20076;-76
2021/07/24 11:14:28;;;;;;;9.40;7.38;;;26.00;99.90;;;;;;5014770;28;20440;-77
2021/07/24 11:17:05;;;;;;;8.18;7.10;;;25.80;99.90;;;;;;5014229;28;20022;-75
2021/07/24 11:19:40;;;;;;;9.07;7.65;;;25.80;99.90;;;;;;4996587;28;20037;-76
2021/07/24 11:22:18;;;;;;;13.00;6.93;;;25.80;99.90;;;;;;5013993;28;20037;-75
2021/07/24 11:24:50;;;;;;;8.70;7.55;;;25.80;99.90;;;;;;4994130;28;20027;-74
2021/07/24 11:27:25;;;;;;;12.13;7.75;;;26.00;99.90;;;;;;4993633;28;20022;-75
2021/07/24 11:30:07;;;;;;;8.30;7.50;;;25.80;99.90;;;;;;4976861;28;20029;-70
2021/07/24 11:32:35;;;;;;;11.02;7.50;;;25.60;99.90;;;;;;4994996;28;20481;-71
2021/07/24 11:35:07;;;;;;;10.77;7.90;;;25.70;99.90;;;;;;5004763;28;20046;-71
2021/07/24 11:37:33;;;;;;;;;;;25.60;99.90;;;;;;5006960;28;20065;-71
2021/07/24 11:39:59;;;;;;;8.15;7.00;;;25.70;99.90;;;;;;4994482;28;19906;-71
2021/07/24 11:42:24;;;;;;;10.50;7.65;;;25.80;99.90;;;;;;4994401;28;20030;-71
2021/07/24 11:44:50;;;;;;;10.98;7.35;;;25.70;99.90;;;;;;4993670;28;20117;-72
2021/07/24 11:47:16;;;;;;;11.35;7.15;;;25.80;99.90;;;;;;4976871;28;20113;-71
2021/07/24 11:49:44;;;;;;;9.35;7.47;;;26.60;99.90;;;;;;4994167;28;20061;-73
2021/07/24 11:52:10;;;;;;;8.23;6.93;;;26.90;99.90;;;;;;4994006;28;20109;-71
2021/07/24 11:54:36;;;;;;;11.02;7.38;;;27.30;99.90;;;;;;5013057;28;20049;-71
2021/07/24 11:57:06;;;;;;;9.95;7.40;;;27.30;99.90;;;;;;4995702;28;20112;-71
2021/07/24 11:59:33;;;;;;;8.10;7.22;;;28.50;98.80;;;;;;5012481;28;20550;-70
2021/07/24 12:02:00;;;;;;;9.70;6.95;;;28.70;97.40;;;;;;5013545;28;20391;-70
2021/07/24 12:04:26;;;;;;;9.52;6.40;;;28.70;96.90;;;;;;5011354;28;20026;-70
2021/07/24 12:07:01;;;;;;;9.60;6.70;;;28.40;97.70;;;;;;5013395;28;20076;-71
2021/07/24 12:09:27;;;;;;;7.15;5.85;;;29.40;97.20;;;;;;5012813;28;20026;-71
2021/07/24 12:11:53;;;;;;;9.50;6.22;;;31.30;94.90;;;;;;5012957;28;20033;-71
2021/07/24 12:14:27;;;;;;;7.18;6.05;;;31.20;93.20;;;;;;5012745;28;20022;-71
2021/07/24 12:17:08;;;;;;;8.00;6.50;;;31.20;93.00;;;;;;5012023;28;20021;-71
2021/07/24 12:19:37;;;;;;;8.38;6.10;;;30.90;93.30;;;;;;5012617;28;20030;-72
2021/07/24 12:22:22;;;;;;;7.00;5.90;;;30.60;91.40;;;;;;5013084;28;20044;-72
2021/07/24 12:24:49;;;;;;;7.53;6.18;;;31.50;90.70;;;;;;5012186;28;20069;-72
2021/07/24 12:27:22;;;;;;;7.05;6.25;;;31.80;90.80;;;;;;5012743;28;20037;-72
2021/07/24 12:29:56;;;;;;;7.82;6.10;;;32.80;91.10;;;;;;5012786;28;20025;-71
2021/07/24 12:32:23;;;;;;;7.97;6.13;;;32.60;88.70;;;;;;5012777;28;20018;-70
2021/07/24 12:34:49;;;;;;;6.90;5.95;;;33.20;90.30;;;;;;5012064;28;20033;-72
2021/07/24 12:37:32;;;;;;;9.05;6.72;;;33.70;86.40;;;;;;4995078;28;20037;-72
2021/07/24 12:40:13;;;;;;;9.15;6.45;;;32.20;86.30;;;;;;5016148;28;20022;-70
2021/07/24 12:42:39;;;;;;;11.15;6.00;;;31.70;89.50;;;;;;5012614;28;20034;-70